WetterOnline ( https://www.wetteronline.de )

Wetter aktuell Cuxhaven

Aktuelles Wetter: Cuxhaven (12m)

6-stündlich | Neueste Meldungen
Ortszeit Temperatur Wetter
Do, 06.10. 2:00 14.1° C bedeckt
Mi, 05.10. 20:00 17.0° C bewölkt
Mi, 05.10. 14:00 16.2° C bedeckt
Mi, 05.10. 8:00 14.5° C bedeckt
Mi, 05.10. 2:00 15.3° C bedeckt
Di, 04.10. 20:00 15.0° C wolkig
Di, 04.10. 14:00 17.0° C leicht bewölkt
Di, 04.10. 8:00 11.6° C bewölkt
Ortszeit Temperatur Wetter
Do, 06.10. 6:00 13.1° C leicht bewölkt
Do, 06.10. 5:50 13.1° C leicht bewölkt
Do, 06.10. 5:40 13.1° C fast wolkenlos
Do, 06.10. 5:30 13.2° C leicht bewölkt
Do, 06.10. 5:20 13.2° C leicht bewölkt
Do, 06.10. 5:10 13.3° C leicht bewölkt
Do, 06.10. 5:00 13.3° C wolkenlos
Do, 06.10. 4:30 13.5° C wolkenlos
Do, 06.10. 4:00 13.7° C leicht bewölkt
Do, 06.10. 3:30 14.0° C leicht bewölkt
Do, 06.10. 3:00 13.8° C wolkenlos
Ortszeit Relative Feuchte Sichtweite
Do, 06.10. 2:00 86% 35 km
Mi, 05.10. 20:00 75% 40 km
Mi, 05.10. 14:00 72% 50 km
Mi, 05.10. 8:00 80% 30 km
Mi, 05.10. 2:00 73% 40 km
Di, 04.10. 20:00 73% 40 km
Di, 04.10. 14:00 63% 40 km
Di, 04.10. 8:00 91% 21 km
Ortszeit Relative Feuchte Sichtweite
Do, 06.10. 6:00 78% 30 km
Do, 06.10. 5:50 78% -
Do, 06.10. 5:40 79% -
Do, 06.10. 5:30 80% 30 km
Do, 06.10. 5:20 80% -
Do, 06.10. 5:10 81% -
Do, 06.10. 5:00 83% 30 km
Do, 06.10. 4:30 84% 35 km
Do, 06.10. 4:00 83% 40 km
Do, 06.10. 3:30 83% 40 km
Do, 06.10. 3:00 85% 45 km
Ortszeit Niederschlagsmenge Niederschlagsart
Do, 06.10. 2:00 0.3 l/m2 in 6 Std. Regen
Mi, 05.10. 20:00 0.0 l/m2 in 12 Std. -
Mi, 05.10. 14:00 0.0 l/m2 in 6 Std. -
Mi, 05.10. 8:00 0.0 l/m2 in 12 Std. -
Mi, 05.10. 2:00 0.0 l/m2 in 6 Std. -
Di, 04.10. 20:00 0.0 l/m2 in 12 Std. -
Di, 04.10. 14:00 0.0 l/m2 in 6 Std. -
Di, 04.10. 8:00 0.0 l/m2 in 12 Std. -
Ortszeit Niederschlagsmenge Niederschlagsart
Do, 06.10. 6:00 0.0 l/m2 in 1 Std. -
Do, 06.10. 5:50 keine Meldung -
Do, 06.10. 5:40 keine Meldung -
Do, 06.10. 5:30 0.0 l/m2 in 1 Std. -
Do, 06.10. 5:20 keine Meldung -
Do, 06.10. 5:10 keine Meldung -
Do, 06.10. 5:00 0.0 l/m2 in 1 Std. -
Do, 06.10. 4:30 0.0 l/m2 in 1 Std. -
Do, 06.10. 4:00 0.0 l/m2 in 1 Std. -
Do, 06.10. 3:30 0.0 l/m2 in 1 Std. -
Do, 06.10. 3:00 0.0 l/m2 in 1 Std. -
Ortszeit Stärke Spitze Richtung
km/h Bft. km/h Grad Sektor
Do, 06.10. 2:00 29 5 76 250° W
Mi, 05.10. 20:00 15 3 48 210° SW
Mi, 05.10. 14:00 22 4 47 210° SW
Mi, 05.10. 8:00 19 3 35 200° S
Mi, 05.10. 2:00 18 3 36 210° SW
Di, 04.10. 20:00 13 3 41 210° SW
Di, 04.10. 14:00 19 3 41 200° S
Di, 04.10. 8:00 11 2 22 210° SW
Ortszeit Stärke Spitze Richtung
km/h Bft. km/h Grad Sektor
Do, 06.10. 6:00 25 4 50 240° SW
Do, 06.10. 5:50 25 4 - 240° SW
Do, 06.10. 5:40 26 4 - 240° SW
Do, 06.10. 5:30 28 4 48 240° SW
Do, 06.10. 5:20 28 4 - 240° SW
Do, 06.10. 5:10 25 4 - 250° W
Do, 06.10. 5:00 26 4 46 240° SW
Do, 06.10. 4:30 24 4 44 240° SW
Do, 06.10. 4:00 29 5 54 240° SW
Do, 06.10. 3:30 25 4 47 240° SW
Do, 06.10. 3:00 22 4 47 230° SW
Ortszeit Untergrenze Bedeckung Gattung
total tief tief mittel hoch
Do, 06.10. 2:00 2100 m 8/8 8/8 - - -
Mi, 05.10. 20:00 990 m 7/8 7/8 - - -
Mi, 05.10. 14:00 750 m 8/8 8/8 - - -
Mi, 05.10. 8:00 1050 m 8/8 8/8 - - -
Mi, 05.10. 2:00 990 m 8/8 8/8 - - -
Di, 04.10. 20:00 7800 m 8/8 0/8 - - -
Di, 04.10. 14:00 840 m 4/8 1/8 - - -
Di, 04.10. 8:00 1290 m 7/8 6/8 - - -
Ortszeit Bedeckungsgrad in Achtel und Wolkenuntergrenze
Do, 06.10. 6:00 2(1140m)
Do, 06.10. 5:50 2(1140m)
Do, 06.10. 5:40 1
Do, 06.10. 5:30 1(1170m) 3(7500m)
Do, 06.10. 5:20 1(1170m) 2(1500m) 3(7500m)
Do, 06.10. 5:10 2
Do, 06.10. 5:00 keine Wolken
Do, 06.10. 4:30 keine Wolken
Do, 06.10. 4:00 1(1440m) 3(2100m)
Do, 06.10. 3:30 2(780m) 4(1170m)
Do, 06.10. 3:00 keine Wolken
Ortszeit Luftdruck NN (hPa) Tendenz (hPa in 3 Std.)
Do, 06.10. 2:00 1015 + 3,1
Mi, 05.10. 20:00 1011 + 0,4
Mi, 05.10. 14:00 1012 - 0,9
Mi, 05.10. 8:00 1013 - 1,1
Mi, 05.10. 2:00 1015 - 0,9
Di, 04.10. 20:00 1017 - 0,4
Di, 04.10. 14:00 1019 - 1,0
Di, 04.10. 8:00 1020 - 0,8
Ortszeit Luftdruck NN (hPa) Tendenz (hPa in 3 Std.)
Do, 06.10. 6:00 1018 + 3,1
Do, 06.10. 5:50 1018 keine Meldung
Do, 06.10. 5:40 1018 keine Meldung
Do, 06.10. 5:30 1018 + 2,8
Do, 06.10. 5:20 1018 keine Meldung
Do, 06.10. 5:10 1018 keine Meldung
Do, 06.10. 5:00 1017 + 2,6
Do, 06.10. 4:30 1017 + 2,5
Do, 06.10. 4:00 1016 + 2,9
Do, 06.10. 3:30 1016 + 3,0
Do, 06.10. 3:00 1015 + 2,8
Ortszeit Schneehöhe (cm)
Do, 06.10. 2:00 0
Mi, 05.10. 20:00 0
Mi, 05.10. 14:00 0
Mi, 05.10. 8:00 0
Mi, 05.10. 2:00 0
Di, 04.10. 20:00 0
Di, 04.10. 14:00 0
Di, 04.10. 8:00 0
Ortszeit Schneehöhe (cm)
Do, 06.10. 6:00 0
Do, 06.10. 5:50 0
Do, 06.10. 5:40 0
Do, 06.10. 5:30 0
Do, 06.10. 5:20 0
Do, 06.10. 5:10 0
Do, 06.10. 5:00 0
Do, 06.10. 4:30 0
Do, 06.10. 4:00 0
Do, 06.10. 3:30 0
Do, 06.10. 3:00 0
Link zu dieser Seite / Seite empfehlen

Das Wetter in ...